Time,TemperatureF,DewpointF,PressureIn,WindDirection,WindDirectionDegrees,WindSpeedMPH,WindSpeedGustMPH,Humidity,HourlyPrecipIn,Conditions,Clouds,dailyrainin,SoftwareType,DateUTC
2013-07-25 00:02:00,63.9,49.3,28.76,South,191,4.0,5.4,59,0.00,,,-99.99,FreeWX-Wi 1.01,2013-07-25 05:02:00,
2013-07-25 00:07:00,63.7,49.5,28.76,SSW,192,4.0,6.3,60,0.00,,,-99.99,FreeWX-Wi 1.01,2013-07-25 05:07:00,
2013-07-25 00:12:00,63.5,49.3,28.76,SSW,193,4.0,6.3,60,0.00,,,-99.99,FreeWX-Wi 1.01,2013-07-25 05:12:00,
2013-07-25 00:17:00,63.1,49.8,28.76,SSW,194,4.0,5.4,62,0.00,,,-99.99,FreeWX-Wi 1.01,2013-07-25 05:17:00,
2013-07-25 00:22:00,63.0,50.2,28.76,SSW,195,5.0,5.4,63,0.00,,,-99.99,FreeWX-Wi 1.01,2013-07-25 05:22:00,
2013-07-25 00:27:00,63.0,50.5,28.76,SSW,195,5.0,5.8,64,0.00,,,-99.99,FreeWX-Wi 1.01,2013-07-25 05:27:00,
2013-07-25 00:32:00,62.8,50.9,28.76,SSW,196,5.0,5.8,65,0.00,,,-99.99,FreeWX-Wi 1.01,2013-07-25 05:32:00,
2013-07-25 00:37:00,62.8,50.9,28.76,SSW,196,5.0,5.8,65,0.00,,,-99.99,FreeWX-Wi 1.01,2013-07-25 05:37:00,
2013-07-25 00:42:00,62.6,51.1,28.76,SSW,198,5.0,5.4,66,0.00,,,-99.99,FreeWX-Wi 1.01,2013-07-25 05:42:00,
2013-07-25 00:47:00,62.2,51.1,28.76,SSW,198,5.0,6.3,67,0.00,,,-99.99,FreeWX-Wi 1.01,2013-07-25 05:47:00,
2013-07-25 00:52:00,62.4,51.8,28.76,SSW,199,5.0,5.8,68,0.00,,,-99.99,FreeWX-Wi 1.01,2013-07-25 05:52:00,
2013-07-25 00:57:00,62.6,51.4,28.76,SSW,200,5.0,5.8,67,0.00,,,-99.99,FreeWX-Wi 1.01,2013-07-25 05:57:00,
2013-07-25 01:02:00,62.6,51.1,28.76,SSW,199,5.0,5.4,66,0.00,,,-99.99,FreeWX-Wi 1.01,2013-07-25 06:02:00,
2013-07-25 01:07:00,62.4,51.3,28.76,SSW,199,5.0,5.0,67,0.00,,,-99.99,FreeWX-Wi 1.01,2013-07-25 06:07:00,
2013-07-25 01:12:00,62.4,51.3,28.76,SSW,199,4.0,5.4,67,0.00,,,-99.99,FreeWX-Wi 1.01,2013-07-25 06:12:00,
2013-07-25 01:22:00,62.2,51.6,28.76,SSW,199,4.0,5.8,68,0.00,,,-99.99,FreeWX-Wi 1.01,2013-07-25 06:22:00,
2013-07-25 01:27:00,61.9,51.3,28.76,SSW,200,4.0,5.8,68,0.00,,,-99.99,FreeWX-Wi 1.01,2013-07-25 06:27:00,
2013-07-25 01:32:00,61.9,51.6,28.76,SSW,199,4.0,5.4,69,0.00,,,-99.99,FreeWX-Wi 1.01,2013-07-25 06:32:00,
2013-07-25 01:37:00,61.9,51.6,28.76,SSW,198,4.0,5.4,69,0.00,,,-99.99,FreeWX-Wi 1.01,2013-07-25 06:37:00,
2013-07-25 01:42:00,61.9,51.6,28.76,SSW,198,4.0,4.9,69,0.00,,,-99.99,FreeWX-Wi 1.01,2013-07-25 06:42:00,
2013-07-25 01:47:00,61.9,51.6,28.76,SSW,197,4.0,4.0,69,0.00,,,-99.99,FreeWX-Wi 1.01,2013-07-25 06:47:00,
2013-07-25 01:52:00,61.9,51.6,28.76,SSW,198,4.0,5.8,69,0.00,,,-99.99,FreeWX-Wi 1.01,2013-07-25 06:52:00,
2013-07-25 01:57:00,61.7,51.8,28.76,SSW,199,4.0,4.9,70,0.00,,,-99.99,FreeWX-Wi 1.01,2013-07-25 06:57:00,
2013-07-25 02:02:00,61.7,51.8,28.76,SSW,201,4.0,4.0,70,0.00,,,-99.99,FreeWX-Wi 1.01,2013-07-25 07:02:00,
2013-07-25 02:07:00,61.7,51.8,28.76,SSW,202,4.0,5.4,70,0.00,,,-99.99,FreeWX-Wi 1.01,2013-07-25 07:07:00,
2013-07-25 02:12:00,61.7,51.8,28.76,SSW,202,4.0,5.8,70,0.00,,,-99.99,FreeWX-Wi 1.01,2013-07-25 07:12:00,
2013-07-25 02:17:00,61.5,51.6,28.76,SSW,201,4.0,5.8,70,0.00,,,-99.99,FreeWX-Wi 1.01,2013-07-25 07:17:00,
2013-07-25 02:22:00,61.7,52.2,28.76,SSW,201,4.0,5.4,71,0.00,,,-99.99,FreeWX-Wi 1.01,2013-07-25 07:22:00,
2013-07-25 02:27:00,61.7,51.8,28.76,SSW,200,4.0,5.8,70,0.00,,,-99.99,FreeWX-Wi 1.01,2013-07-25 07:27:00,
2013-07-25 02:32:00,61.7,51.8,28.76,SSW,200,4.0,5.4,70,0.00,,,-99.99,FreeWX-Wi 1.01,2013-07-25 07:32:00,
2013-07-25 02:37:00,61.5,51.6,28.76,SSW,199,4.0,5.8,70,0.00,,,-99.99,FreeWX-Wi 1.01,2013-07-25 07:37:00,
2013-07-25 02:42:00,61.3,51.4,28.76,SSW,198,4.0,5.8,70,0.00,,,-99.99,FreeWX-Wi 1.01,2013-07-25 07:42:00,
2013-07-25 02:47:00,61.3,51.8,28.73,SSW,197,5.0,6.3,71,0.00,,,-99.99,FreeWX-Wi 1.01,2013-07-25 07:47:00,
2013-07-25 02:52:00,61.3,51.8,28.73,SSW,195,5.0,5.8,71,0.00,,,-99.99,FreeWX-Wi 1.01,2013-07-25 07:52:00,
2013-07-25 02:57:00,61.3,51.8,28.73,SSW,195,5.0,5.8,71,0.00,,,-99.99,FreeWX-Wi 1.01,2013-07-25 07:57:00,
2013-07-25 03:02:00,61.3,51.8,28.73,SSW,194,5.0,5.8,71,0.00,,,-99.99,FreeWX-Wi 1.01,2013-07-25 08:02:00,
2013-07-25 03:07:00,61.2,52.0,28.73,SSW,194,5.0,6.3,72,0.00,,,-99.99,FreeWX-Wi 1.01,2013-07-25 08:07:00,
2013-07-25 03:12:00,61.2,52.0,28.73,SSW,195,5.0,7.6,72,0.00,,,-99.99,FreeWX-Wi 1.01,2013-07-25 08:12:00,
2013-07-25 03:17:00,61.2,52.5,28.73,SSW,195,5.0,8.7,73,0.00,,,-99.99,FreeWX-Wi 1.01,2013-07-25 08:17:00,
2013-07-25 03:22:00,61.3,52.5,28.73,SSW,196,5.0,6.7,73,0.00,,,-99.99,FreeWX-Wi 1.01,2013-07-25 08:22:00,
2013-07-25 03:27:00,61.3,52.5,28.73,SSW,197,5.0,7.6,73,0.00,,,-99.99,FreeWX-Wi 1.01,2013-07-25 08:27:00,
2013-07-25 03:32:00,61.3,52.5,28.73,SSW,199,5.0,6.3,73,0.00,,,-99.99,FreeWX-Wi 1.01,2013-07-25 08:32:00,
2013-07-25 03:37:00,61.2,52.5,28.73,SSW,201,6.0,8.1,73,0.00,,,-99.99,FreeWX-Wi 1.01,2013-07-25 08:37:00,
2013-07-25 03:42:00,61.0,53.1,28.73,SSW,203,6.0,8.3,75,0.00,,,-99.99,FreeWX-Wi 1.01,2013-07-25 08:42:00,
2013-07-25 03:47:00,61.0,53.1,28.73,SSW,204,6.0,7.6,75,0.00,,,-99.99,FreeWX-Wi 1.01,2013-07-25 08:47:00,
2013-07-25 03:52:00,61.0,53.4,28.73,SSW,206,6.0,6.3,76,0.00,,,-99.99,FreeWX-Wi 1.01,2013-07-25 08:52:00,
2013-07-25 03:57:00,61.2,53.2,28.73,SSW,206,6.0,6.3,75,0.00,,,-99.99,FreeWX-Wi 1.01,2013-07-25 08:57:00,
2013-07-25 04:01:00,61.2,52.9,28.73,SSW,207,6.0,6.3,74,0.00,,,-99.99,FreeWX-Wi 1.01,2013-07-25 09:01:00,
2013-07-25 04:06:00,61.2,52.9,28.73,SSW,208,5.0,6.3,74,0.00,,,-99.99,FreeWX-Wi 1.01,2013-07-25 09:06:00,
2013-07-25 04:12:00,61.2,52.5,28.73,SSW,208,5.0,6.3,73,0.00,,,-99.99,FreeWX-Wi 1.01,2013-07-25 09:12:00,
2013-07-25 04:17:00,61.2,52.5,28.73,SSW,207,5.0,5.8,73,0.00,,,-99.99,FreeWX-Wi 1.01,2013-07-25 09:17:00,
2013-07-25 04:21:00,61.2,52.5,28.73,SSW,206,5.0,5.0,73,0.00,,,-99.99,FreeWX-Wi 1.01,2013-07-25 09:21:00,
2013-07-25 04:27:00,61.2,52.5,28.73,SSW,203,5.0,5.8,73,0.00,,,-99.99,FreeWX-Wi 1.01,2013-07-25 09:27:00,
2013-07-25 04:32:00,61.0,52.3,28.73,SSW,201,5.0,5.8,73,0.00,,,-99.99,FreeWX-Wi 1.01,2013-07-25 09:32:00,
2013-07-25 04:42:00,61.0,52.3,28.73,SSW,198,5.0,5.8,73,0.00,,,-99.99,FreeWX-Wi 1.01,2013-07-25 09:42:00,
2013-07-25 04:47:00,60.8,52.2,28.73,SSW,197,5.0,5.8,73,0.00,,,-99.99,FreeWX-Wi 1.01,2013-07-25 09:47:00,
2013-07-25 05:02:00,60.4,52.2,28.73,SSW,194,5.0,5.8,74,0.00,,,-99.99,FreeWX-Wi 1.01,2013-07-25 10:02:00,
2013-07-25 05:07:00,60.4,52.5,28.73,SSW,194,5.0,6.3,75,0.00,,,-99.99,FreeWX-Wi 1.01,2013-07-25 10:07:00,
2013-07-25 05:12:00,60.4,52.9,28.73,SSW,196,5.0,6.3,76,0.00,,,-99.99,FreeWX-Wi 1.01,2013-07-25 10:12:00,
2013-07-25 05:17:00,60.4,52.9,28.73,SSW,198,5.0,6.3,76,0.00,,,-99.99,FreeWX-Wi 1.01,2013-07-25 10:17:00,
2013-07-25 05:22:00,60.6,53.4,28.73,SSW,199,5.0,6.3,77,0.00,,,-99.99,FreeWX-Wi 1.01,2013-07-25 10:22:00,
2013-07-25 05:27:00,60.4,52.9,28.73,SSW,203,5.0,5.8,76,0.00,,,-99.99,FreeWX-Wi 1.01,2013-07-25 10:27:00,
2013-07-25 05:32:00,60.3,52.3,28.73,SSW,206,5.0,6.3,75,0.00,,,-99.99,FreeWX-Wi 1.01,2013-07-25 10:32:00,
2013-07-25 05:37:00,60.1,52.9,28.73,SSW,208,5.0,6.3,77,0.00,,,-99.99,FreeWX-Wi 1.01,2013-07-25 10:37:00,
2013-07-25 05:42:00,59.9,53.1,28.73,SSW,210,5.0,6.3,78,0.00,,,-99.99,FreeWX-Wi 1.01,2013-07-25 10:42:00,
2013-07-25 05:47:00,59.9,53.4,28.73,SSW,212,5.0,5.8,79,0.00,,,-99.99,FreeWX-Wi 1.01,2013-07-25 10:47:00,
2013-07-25 05:52:00,59.9,53.8,28.73,SSW,212,5.0,6.3,80,0.00,,,-99.99,FreeWX-Wi 1.01,2013-07-25 10:52:00,
2013-07-25 05:57:00,60.1,54.1,28.73,SSW,213,5.0,6.3,81,0.00,,,-99.99,FreeWX-Wi 1.01,2013-07-25 10:57:00,
2013-07-25 06:02:00,60.3,54.1,28.73,SSW,213,5.0,6.3,80,0.00,,,-99.99,FreeWX-Wi 1.01,2013-07-25 11:02:00,
2013-07-25 06:07:00,60.3,53.8,28.73,SSW,213,5.0,6.3,79,0.00,,,-99.99,FreeWX-Wi 1.01,2013-07-25 11:07:00,
2013-07-25 06:12:00,60.8,54.0,28.73,SW,215,5.0,6.3,78,0.00,,,-99.99,FreeWX-Wi 1.01,2013-07-25 11:12:00,
2013-07-25 06:17:00,60.8,53.6,28.73,SW,217,5.0,6.3,77,0.00,,,-99.99,FreeWX-Wi 1.01,2013-07-25 11:17:00,
2013-07-25 06:22:00,61.7,53.8,28.73,SW,220,5.0,6.3,75,0.00,,,-99.99,FreeWX-Wi 1.01,2013-07-25 11:22:00,
2013-07-25 06:27:00,63.0,53.4,28.73,SW,221,5.0,6.3,71,0.00,,,-99.99,FreeWX-Wi 1.01,2013-07-25 11:27:00,
2013-07-25 06:32:00,62.4,52.2,28.73,SW,221,5.0,6.7,69,0.00,,,-99.99,FreeWX-Wi 1.01,2013-07-25 11:32:00,
2013-07-25 06:37:00,62.1,52.5,28.73,SW,221,5.0,8.1,71,0.00,,,-99.99,FreeWX-Wi 1.01,2013-07-25 11:37:00,
2013-07-25 06:42:00,62.2,53.1,28.73,SW,220,5.0,7.6,72,0.00,,,-99.99,FreeWX-Wi 1.01,2013-07-25 11:42:00,
2013-07-25 06:52:00,63.0,53.4,28.73,SW,216,6.0,8.1,71,0.00,,,-99.99,FreeWX-Wi 1.01,2013-07-25 11:52:00,
2013-07-25 06:57:00,63.1,53.2,28.73,SW,214,6.0,8.1,70,0.00,,,-99.99,FreeWX-Wi 1.01,2013-07-25 11:57:00,
2013-07-25 07:02:00,63.7,53.8,28.73,SW,214,6.0,8.1,70,0.00,,,-99.99,FreeWX-Wi 1.01,2013-07-25 12:02:00,
2013-07-25 07:07:00,63.5,53.6,28.73,SW,214,6.0,7.6,70,0.00,,,-99.99,FreeWX-Wi 1.01,2013-07-25 12:07:00,
2013-07-25 07:12:00,63.3,53.4,28.73,SW,214,6.0,6.3,70,0.00,,,-99.99,FreeWX-Wi 1.01,2013-07-25 12:12:00,
2013-07-25 07:17:00,63.3,53.4,28.73,SW,214,6.0,7.2,70,0.00,,,-99.99,FreeWX-Wi 1.01,2013-07-25 12:17:00,
2013-07-25 07:22:00,63.7,53.8,28.73,SW,214,6.0,7.6,70,0.00,,,-99.99,FreeWX-Wi 1.01,2013-07-25 12:22:00,
2013-07-25 07:26:00,64.2,53.8,28.73,SW,214,6.0,7.6,69,0.00,,,-99.99,FreeWX-Wi 1.01,2013-07-25 12:26:00,
2013-07-25 07:32:00,64.8,53.6,28.73,SW,214,6.0,7.6,67,0.00,,,-99.99,FreeWX-Wi 1.01,2013-07-25 12:32:00,
2013-07-25 07:37:00,65.5,53.4,28.73,SSW,213,6.0,8.3,65,0.00,,,-99.99,FreeWX-Wi 1.01,2013-07-25 12:37:00,
2013-07-25 07:42:00,65.5,52.5,28.73,SSW,213,6.0,8.7,63,0.00,,,-99.99,FreeWX-Wi 1.01,2013-07-25 12:42:00,
2013-07-25 07:47:00,65.7,53.1,28.73,SW,214,6.0,8.1,64,0.00,,,-99.99,FreeWX-Wi 1.01,2013-07-25 12:47:00,
2013-07-25 07:52:00,65.7,53.6,28.73,SW,216,6.0,8.3,65,0.00,,,-99.99,FreeWX-Wi 1.01,2013-07-25 12:52:00,
2013-07-25 07:57:00,65.5,53.4,28.73,SW,217,6.0,7.6,65,0.00,,,-99.99,FreeWX-Wi 1.01,2013-07-25 12:57:00,
2013-07-25 08:02:00,65.3,53.2,28.76,SW,220,6.0,7.6,65,0.00,,,-99.99,FreeWX-Wi 1.01,2013-07-25 13:02:00,
2013-07-25 08:07:00,65.5,53.4,28.76,SW,222,6.0,6.3,65,0.00,,,-99.99,FreeWX-Wi 1.01,2013-07-25 13:07:00,
2013-07-25 08:12:00,65.7,54.0,28.76,SW,223,6.0,7.2,66,0.00,,,-99.99,FreeWX-Wi 1.01,2013-07-25 13:12:00,
2013-07-25 08:17:00,65.8,53.8,28.73,SW,223,6.0,6.3,65,0.00,,,-99.99,FreeWX-Wi 1.01,2013-07-25 13:17:00,
2013-07-25 08:22:00,65.8,53.2,28.73,SW,224,6.0,6.3,64,0.00,,,-99.99,FreeWX-Wi 1.01,2013-07-25 13:22:00,
2013-07-25 08:27:00,65.8,53.2,28.73,SW,228,5.0,5.0,64,0.00,,,-99.99,FreeWX-Wi 1.01,2013-07-25 13:27:00,
2013-07-25 08:32:00,65.8,53.2,28.73,SW,234,5.0,5.0,64,0.00,,,-99.99,FreeWX-Wi 1.01,2013-07-25 13:32:00,
2013-07-25 08:37:00,66.7,54.7,28.76,WSW,242,4.0,4.0,65,0.00,,,-99.99,FreeWX-Wi 1.01,2013-07-25 13:37:00,
2013-07-25 08:42:00,67.3,53.8,28.76,WSW,241,4.0,5.4,62,0.00,,,-99.99,FreeWX-Wi 1.01,2013-07-25 13:42:00,
2013-07-25 08:47:00,67.3,52.0,28.76,WSW,240,4.0,6.3,58,0.00,,,-99.99,FreeWX-Wi 1.01,2013-07-25 13:47:00,
2013-07-25 08:57:00,67.5,53.6,28.76,WSW,237,3.0,4.0,61,0.00,,,-99.99,FreeWX-Wi 1.01,2013-07-25 13:57:00,
2013-07-25 09:02:00,68.0,53.6,28.76,WSW,238,3.0,0.0,60,0.00,,,-99.99,FreeWX-Wi 1.01,2013-07-25 14:02:00,
2013-07-25 09:11:00,70.0,54.0,28.76,WSW,237,2.0,3.6,57,0.00,,,-99.99,FreeWX-Wi 1.01,2013-07-25 14:11:00,
2013-07-25 09:16:00,71.4,54.0,28.76,SW,236,2.0,7.6,54,0.00,,,-99.99,FreeWX-Wi 1.01,2013-07-25 14:16:00,
2013-07-25 09:21:00,72.1,51.3,28.76,SW,235,2.0,8.7,48,0.00,,,-99.99,FreeWX-Wi 1.01,2013-07-25 14:21:00,
2013-07-25 09:27:00,73.6,52.2,28.76,SW,228,3.0,8.7,47,0.00,,,-99.99,FreeWX-Wi 1.01,2013-07-25 14:27:00,
2013-07-25 09:32:00,75.2,51.1,28.76,SW,222,4.0,10.5,43,0.00,,,-99.99,FreeWX-Wi 1.01,2013-07-25 14:32:00,
2013-07-25 09:37:00,75.0,51.6,28.76,SW,225,4.0,6.3,44,0.00,,,-99.99,FreeWX-Wi 1.01,2013-07-25 14:37:00,
2013-07-25 09:42:00,76.8,52.0,28.76,SW,230,4.0,11.0,42,0.00,,,-99.99,FreeWX-Wi 1.01,2013-07-25 14:42:00,
2013-07-25 09:47:00,76.3,52.2,28.73,SW,232,4.0,8.1,43,0.00,,,-99.99,FreeWX-Wi 1.01,2013-07-25 14:47:00,
2013-07-25 09:51:00,75.9,52.3,28.73,SW,233,5.0,7.6,44,0.00,,,-99.99,FreeWX-Wi 1.01,2013-07-25 14:51:00,
2013-07-25 09:56:00,78.3,53.2,28.73,SW,233,5.0,7.6,42,0.00,,,-99.99,FreeWX-Wi 1.01,2013-07-25 14:56:00,
2013-07-25 10:02:00,78.8,51.1,28.73,SW,236,6.0,11.4,38,0.00,,,-99.99,FreeWX-Wi 1.01,2013-07-25 15:02:00,
2013-07-25 10:07:00,79.7,52.5,28.76,WSW,237,6.0,10.5,39,0.00,,,-99.99,FreeWX-Wi 1.01,2013-07-25 15:07:00,
2013-07-25 10:12:00,79.7,51.1,28.76,WSW,237,6.0,11.0,37,0.00,,,-99.99,FreeWX-Wi 1.01,2013-07-25 15:12:00,
2013-07-25 10:17:00,78.3,52.0,28.76,WSW,239,6.0,15.0,40,0.00,,,-99.99,FreeWX-Wi 1.01,2013-07-25 15:17:00,
2013-07-25 10:22:00,79.5,50.9,28.76,WSW,239,7.0,14.5,37,0.00,,,-99.99,FreeWX-Wi 1.01,2013-07-25 15:22:00,
2013-07-25 10:27:00,79.5,51.6,28.76,WSW,238,7.0,14.5,38,0.00,,,-99.99,FreeWX-Wi 1.01,2013-07-25 15:27:00,
2013-07-25 10:32:00,79.2,49.8,28.76,WSW,237,8.0,12.8,36,0.00,,,-99.99,FreeWX-Wi 1.01,2013-07-25 15:32:00,
2013-07-25 12:58:00,84.6,51.4,28.73,WSW,249,6.0,12.8,32,0.00,,,-99.99,FreeWX-Wi 1.01,2013-07-25 17:58:00,
2013-07-25 13:03:00,84.9,50.0,28.73,WSW,251,5.0,13.2,30,0.00,,,-99.99,FreeWX-Wi 1.01,2013-07-25 18:03:00,
2013-07-25 13:08:00,83.8,50.0,28.73,WSW,247,6.0,12.8,31,0.00,,,-99.99,FreeWX-Wi 1.01,2013-07-25 18:08:00,
2013-07-25 13:13:00,83.1,49.3,28.73,WSW,241,7.0,15.4,31,0.00,,,-99.99,FreeWX-Wi 1.01,2013-07-25 18:13:00,
2013-07-25 13:18:00,82.4,48.7,28.73,SW,234,9.0,15.0,31,0.00,,,-99.99,FreeWX-Wi 1.01,2013-07-25 18:18:00,
2013-07-25 13:23:00,82.4,49.5,28.73,SW,230,10.0,15.0,32,0.00,,,-99.99,FreeWX-Wi 1.01,2013-07-25 18:23:00,
2013-07-25 13:28:00,82.6,51.3,28.73,SW,227,10.0,15.4,34,0.00,,,-99.99,FreeWX-Wi 1.01,2013-07-25 18:28:00,
2013-07-25 13:33:00,82.4,49.5,28.70,SW,227,10.0,12.3,32,0.00,,,-99.99,FreeWX-Wi 1.01,2013-07-25 18:33:00,
2013-07-25 13:38:00,82.8,50.7,28.70,SW,227,10.0,10.0,33,0.00,,,-99.99,FreeWX-Wi 1.01,2013-07-25 18:38:00,
2013-07-25 13:43:00,83.1,49.3,28.70,SW,224,10.0,12.3,31,0.00,,,-99.99,FreeWX-Wi 1.01,2013-07-25 18:43:00,
2013-07-25 13:48:00,83.1,51.1,28.70,SW,222,9.0,12.3,33,0.00,,,-99.99,FreeWX-Wi 1.01,2013-07-25 18:48:00,
2013-07-25 13:53:00,84.2,49.5,28.70,SW,223,9.0,15.0,30,0.00,,,-99.99,FreeWX-Wi 1.01,2013-07-25 18:53:00,
2013-07-25 13:58:00,83.7,49.8,28.70,SW,223,9.0,17.4,31,0.00,,,-99.99,FreeWX-Wi 1.01,2013-07-25 18:58:00,
2013-07-25 14:03:00,84.7,49.8,28.70,SW,225,9.0,15.0,30,0.00,,,-99.99,FreeWX-Wi 1.01,2013-07-25 19:03:00,
2013-07-25 14:08:00,86.4,50.4,28.70,SW,220,10.0,15.0,29,0.00,,,-99.99,FreeWX-Wi 1.01,2013-07-25 19:08:00,
2013-07-25 14:13:00,87.1,50.9,28.70,SW,219,10.0,12.8,29,0.00,,,-99.99,FreeWX-Wi 1.01,2013-07-25 19:13:00,
2013-07-25 14:18:00,87.4,51.3,28.70,SW,219,10.0,15.4,29,0.00,,,-99.99,FreeWX-Wi 1.01,2013-07-25 19:18:00,
2013-07-25 14:23:00,85.8,49.8,28.70,SW,219,11.0,17.4,29,0.00,,,-99.99,FreeWX-Wi 1.01,2013-07-25 19:23:00,
2013-07-25 14:28:00,84.4,48.6,28.70,SW,219,11.0,15.4,29,0.00,,,-99.99,FreeWX-Wi 1.01,2013-07-25 19:28:00,
2013-07-25 14:33:00,83.5,48.7,28.67,SW,218,11.0,17.0,30,0.00,,,-99.99,FreeWX-Wi 1.01,2013-07-25 19:33:00,
2013-07-25 14:38:00,83.5,49.6,28.67,SW,220,12.0,17.4,31,0.00,,,-99.99,FreeWX-Wi 1.01,2013-07-25 19:38:00,
2013-07-25 14:43:00,84.0,50.2,28.67,SW,219,12.0,15.0,31,0.00,,,-99.99,FreeWX-Wi 1.01,2013-07-25 19:43:00,
2013-07-25 14:53:00,83.3,48.6,28.70,SW,217,13.0,19.2,30,0.00,,,-99.99,FreeWX-Wi 1.01,2013-07-25 19:53:00,
2013-07-25 14:58:00,83.3,48.6,28.70,SW,215,13.0,17.4,30,0.00,,,-99.99,FreeWX-Wi 1.01,2013-07-25 19:58:00,
2013-07-25 15:03:00,83.8,50.0,28.67,SW,214,13.0,18.3,31,0.00,,,-99.99,FreeWX-Wi 1.01,2013-07-25 20:03:00,
2013-07-25 15:08:00,83.7,48.9,28.67,SSW,213,13.0,16.3,30,0.00,,,-99.99,FreeWX-Wi 1.01,2013-07-25 20:08:00,
2013-07-25 15:13:00,83.1,47.5,28.67,SW,214,13.0,22.4,29,0.00,,,-99.99,FreeWX-Wi 1.01,2013-07-25 20:13:00,
2013-07-25 15:18:00,82.4,47.8,28.70,SW,216,14.0,17.0,30,0.00,,,-99.99,FreeWX-Wi 1.01,2013-07-25 20:18:00,
2013-07-25 15:23:00,81.7,48.0,28.70,SW,222,13.0,15.4,31,0.00,,,-99.99,FreeWX-Wi 1.01,2013-07-25 20:23:00,
2013-07-25 15:28:00,80.2,46.8,28.70,SW,228,12.0,12.8,31,0.00,,,-99.99,FreeWX-Wi 1.01,2013-07-25 20:28:00,
2013-07-25 15:33:00,75.2,47.1,28.73,WSW,241,11.0,14.5,37,0.00,,,-99.99,FreeWX-Wi 1.01,2013-07-25 20:33:00,
2013-07-25 15:38:00,70.9,49.6,28.73,WSW,252,11.0,11.9,47,0.00,,,-99.99,FreeWX-Wi 1.01,2013-07-25 20:38:00,
2013-07-25 15:43:00,70.0,49.5,28.73,WSW,257,11.0,15.0,48,0.00,,,-99.99,FreeWX-Wi 1.01,2013-07-25 20:43:00,
2013-07-25 15:48:00,69.1,50.7,28.73,West,271,10.0,15.0,52,0.00,,,-99.99,FreeWX-Wi 1.01,2013-07-25 20:48:00,
2013-07-25 15:53:00,68.4,51.6,28.73,WNW,293,10.0,12.3,55,0.00,,,-99.99,FreeWX-Wi 1.01,2013-07-25 20:53:00,
2013-07-25 15:58:00,67.6,52.3,28.73,NW,308,10.0,15.0,58,0.00,,,-99.99,FreeWX-Wi 1.01,2013-07-25 20:58:00,
2013-07-25 16:03:00,65.8,56.1,28.70,NW,320,10.0,13.2,71,0.00,,,-99.99,FreeWX-Wi 1.01,2013-07-25 21:03:00,
2013-07-25 16:08:00,64.8,58.8,28.70,NNW,346,9.0,13.6,81,0.08,,,-99.99,FreeWX-Wi 1.01,2013-07-25 21:08:00,
2013-07-25 16:12:00,64.2,60.6,28.70,North,2,9.0,12.3,88,0.08,,,-99.99,FreeWX-Wi 1.01,2013-07-25 21:12:00,
2013-07-25 16:17:00,64.2,61.0,28.73,NNE,13,8.0,11.0,89,0.12,,,-99.99,FreeWX-Wi 1.01,2013-07-25 21:17:00,
2013-07-25 16:22:00,64.0,61.3,28.73,NNE,17,8.0,8.3,91,0.20,,,-99.99,FreeWX-Wi 1.01,2013-07-25 21:22:00,
2013-07-25 16:27:00,64.2,61.9,28.73,North,11,7.0,7.0,92,0.20,,,-99.99,FreeWX-Wi 1.01,2013-07-25 21:27:00,
2013-07-25 16:37:00,63.9,61.9,28.76,North,3,4.0,5.8,93,0.20,,,-99.99,FreeWX-Wi 1.01,2013-07-25 21:37:00,
2013-07-25 16:42:00,63.7,61.7,28.76,North,2,4.0,5.8,93,0.24,,,-99.99,FreeWX-Wi 1.01,2013-07-25 21:42:00,
2013-07-25 16:47:00,63.7,61.9,28.73,North,2,3.0,7.6,94,0.24,,,-99.99,FreeWX-Wi 1.01,2013-07-25 21:47:00,
2013-07-25 16:52:00,63.9,62.4,28.73,North,3,3.0,6.7,95,0.28,,,-99.99,FreeWX-Wi 1.01,2013-07-25 21:52:00,
2013-07-25 16:57:00,63.9,62.8,28.73,NNE,13,4.0,6.3,96,0.28,,,-99.99,FreeWX-Wi 1.01,2013-07-25 21:57:00,
2013-07-25 17:02:00,64.2,63.3,28.73,NNE,17,4.0,5.8,97,0.28,,,-99.99,FreeWX-Wi 1.01,2013-07-25 22:02:00,
2013-07-25 17:07:00,64.0,63.5,28.73,NNE,21,4.0,6.3,98,0.20,,,-99.99,FreeWX-Wi 1.01,2013-07-25 22:07:00,
2013-07-25 17:12:00,64.2,63.7,28.73,NNE,23,4.0,7.6,98,0.20,,,-99.99,FreeWX-Wi 1.01,2013-07-25 22:12:00,
2013-07-25 17:17:00,64.2,63.7,28.73,NNE,22,4.0,6.3,98,0.16,,,-99.99,FreeWX-Wi 1.01,2013-07-25 22:17:00,
2013-07-25 17:22:00,64.4,63.9,28.73,NNE,32,4.0,5.4,98,0.08,,,-99.99,FreeWX-Wi 1.01,2013-07-25 22:22:00,
2013-07-25 17:27:00,64.4,63.9,28.73,NE,49,4.0,6.3,98,0.08,,,-99.99,FreeWX-Wi 1.01,2013-07-25 22:27:00,
2013-07-25 17:32:00,64.4,63.9,28.70,ENE,72,4.0,8.1,98,0.08,,,-99.99,FreeWX-Wi 1.01,2013-07-25 22:32:00,
2013-07-25 17:37:00,64.4,63.9,28.70,East,96,4.0,6.3,98,0.08,,,-99.99,FreeWX-Wi 1.01,2013-07-25 22:37:00,
2013-07-25 17:42:00,64.9,64.4,28.70,ESE,111,4.0,11.9,98,0.08,,,-99.99,FreeWX-Wi 1.01,2013-07-25 22:42:00,
2013-07-25 17:47:00,64.9,64.4,28.70,ESE,121,5.0,11.0,98,0.04,,,-99.99,FreeWX-Wi 1.01,2013-07-25 22:47:00,
2013-07-25 17:52:00,65.1,64.6,28.70,SE,125,6.0,12.3,98,0.04,,,-99.99,FreeWX-Wi 1.01,2013-07-25 22:52:00,
2013-07-25 17:57:00,66.2,65.3,28.70,SE,127,6.0,10.1,97,0.04,,,-99.99,FreeWX-Wi 1.01,2013-07-25 22:57:00,
2013-07-25 18:02:00,65.8,64.9,28.70,SE,128,7.0,10.5,97,0.04,,,-99.99,FreeWX-Wi 1.01,2013-07-25 23:02:00,
2013-07-25 18:07:00,65.7,64.4,28.70,SE,132,7.0,13.2,96,0.04,,,-99.99,FreeWX-Wi 1.01,2013-07-25 23:07:00,
2013-07-25 18:12:00,65.5,64.0,28.70,SE,133,8.0,12.3,95,0.04,,,-99.99,FreeWX-Wi 1.01,2013-07-25 23:12:00,
2013-07-25 18:17:00,65.7,63.9,28.67,SE,132,8.0,8.3,94,0.04,,,-99.99,FreeWX-Wi 1.01,2013-07-25 23:17:00,
2013-07-25 18:22:00,65.7,63.5,28.67,SE,131,7.0,8.3,93,0.04,,,-99.99,FreeWX-Wi 1.01,2013-07-25 23:22:00,
2013-07-25 18:27:00,65.8,63.1,28.67,SE,126,7.0,8.7,91,0.04,,,-99.99,FreeWX-Wi 1.01,2013-07-25 23:27:00,
2013-07-25 18:32:00,66.0,63.0,28.70,SE,125,7.0,8.3,90,0.00,,,-99.99,FreeWX-Wi 1.01,2013-07-25 23:32:00,
2013-07-25 18:37:00,66.2,62.8,28.70,SE,126,6.0,6.3,89,0.00,,,-99.99,FreeWX-Wi 1.01,2013-07-25 23:37:00,
2013-07-25 18:42:00,66.2,62.8,28.70,SE,129,6.0,10.1,89,0.00,,,-99.99,FreeWX-Wi 1.01,2013-07-25 23:42:00,
2013-07-25 18:47:00,68.2,64.8,28.67,SE,134,6.0,10.5,89,0.00,,,-99.99,FreeWX-Wi 1.01,2013-07-25 23:47:00,
2013-07-25 18:52:00,70.9,61.3,28.67,SE,140,6.0,8.3,72,0.00,,,-99.99,FreeWX-Wi 1.01,2013-07-25 23:52:00,
2013-07-25 18:57:00,71.2,57.0,28.67,SE,143,6.0,8.3,61,0.00,,,-99.99,FreeWX-Wi 1.01,2013-07-25 23:57:00,
2013-07-25 19:02:00,69.8,57.9,28.70,SSE,147,6.0,7.6,66,0.00,,,-99.99,FreeWX-Wi 1.01,2013-07-26 00:02:00,
2013-07-25 19:07:00,69.1,58.8,28.70,SSE,151,6.0,8.1,70,0.00,,,-99.99,FreeWX-Wi 1.01,2013-07-26 00:07:00,
2013-07-25 19:12:00,70.5,58.6,28.70,SSE,151,6.0,6.0,66,0.00,,,-99.99,FreeWX-Wi 1.01,2013-07-26 00:12:00,
2013-07-25 19:17:00,70.3,57.6,28.70,SSE,150,6.0,6.3,64,0.00,,,-99.99,FreeWX-Wi 1.01,2013-07-26 00:17:00,
2013-07-25 19:22:00,69.3,58.3,28.70,SSE,151,6.0,7.6,68,0.00,,,-99.99,FreeWX-Wi 1.01,2013-07-26 00:22:00,
2013-07-25 19:27:00,68.0,58.6,28.70,SSE,154,6.0,12.8,72,0.00,,,-99.99,FreeWX-Wi 1.01,2013-07-26 00:27:00,
2013-07-25 19:32:00,67.3,59.0,28.70,SSE,157,6.0,10.5,75,0.00,,,-99.99,FreeWX-Wi 1.01,2013-07-26 00:32:00,
2013-07-25 19:37:00,66.7,59.4,28.70,SSE,159,6.0,8.1,77,0.00,,,-99.99,FreeWX-Wi 1.01,2013-07-26 00:37:00,
2013-07-25 19:42:00,66.6,59.9,28.70,SSE,158,6.0,6.3,79,0.00,,,-99.99,FreeWX-Wi 1.01,2013-07-26 00:42:00,
2013-07-25 19:47:00,66.6,60.8,28.70,SSE,154,6.0,6.0,82,0.00,,,-99.99,FreeWX-Wi 1.01,2013-07-26 00:47:00,
2013-07-25 19:52:00,66.6,60.8,28.70,SSE,150,5.0,6.3,82,0.00,,,-99.99,FreeWX-Wi 1.01,2013-07-26 00:52:00,
2013-07-25 19:57:00,66.6,60.8,28.70,SSE,149,5.0,6.3,82,0.00,,,-99.99,FreeWX-Wi 1.01,2013-07-26 00:57:00,
2013-07-25 20:02:00,66.4,60.4,28.70,SSE,149,5.0,6.3,81,0.00,,,-99.99,FreeWX-Wi 1.01,2013-07-26 01:02:00,
2013-07-25 20:07:00,66.4,60.1,28.70,SSE,149,5.0,5.8,80,0.00,,,-99.99,FreeWX-Wi 1.01,2013-07-26 01:07:00,
2013-07-25 20:12:00,66.2,59.9,28.70,SSE,148,5.0,5.8,80,0.00,,,-99.99,FreeWX-Wi 1.01,2013-07-26 01:12:00,
2013-07-25 20:17:00,66.0,60.1,28.70,SSE,148,5.0,6.3,81,0.00,,,-99.99,FreeWX-Wi 1.01,2013-07-26 01:17:00,
2013-07-25 20:27:00,65.8,60.3,28.70,SSE,148,5.0,6.3,82,0.00,,,-99.99,FreeWX-Wi 1.01,2013-07-26 01:27:00,
2013-07-25 20:32:00,65.7,60.3,28.70,SSE,148,5.0,6.3,83,0.00,,,-99.99,FreeWX-Wi 1.01,2013-07-26 01:32:00,
2013-07-25 20:37:00,65.7,60.6,28.70,SSE,150,6.0,9.2,84,0.00,,,-99.99,FreeWX-Wi 1.01,2013-07-26 01:37:00,
2013-07-25 20:42:00,65.8,61.2,28.70,SSE,153,6.0,11.0,85,0.00,,,-99.99,FreeWX-Wi 1.01,2013-07-26 01:42:00,
2013-07-25 20:47:00,65.8,61.5,28.70,SSE,157,6.0,12.3,86,0.00,,,-99.99,FreeWX-Wi 1.01,2013-07-26 01:47:00,
2013-07-25 20:52:00,65.7,61.7,28.70,SSE,157,6.0,10.1,87,0.00,,,-99.99,FreeWX-Wi 1.01,2013-07-26 01:52:00,
2013-07-25 20:57:00,65.7,61.3,28.70,SSE,159,6.0,13.2,86,0.00,,,-99.99,FreeWX-Wi 1.01,2013-07-26 01:57:00,
2013-07-25 21:02:00,65.5,60.8,28.70,SSE,160,7.0,13.2,85,0.00,,,-99.99,FreeWX-Wi 1.01,2013-07-26 02:02:00,
2013-07-25 21:07:00,65.1,60.4,28.70,SSE,160,7.0,15.0,85,0.00,,,-99.99,FreeWX-Wi 1.01,2013-07-26 02:07:00,
2013-07-25 21:12:00,65.1,60.4,28.70,SSE,160,7.0,13.2,85,0.00,,,-99.99,FreeWX-Wi 1.01,2013-07-26 02:12:00,
2013-07-25 21:17:00,64.8,60.1,28.70,SSE,160,7.0,10.1,85,0.00,,,-99.99,FreeWX-Wi 1.01,2013-07-26 02:17:00,
2013-07-25 21:22:00,64.8,60.4,28.70,SSE,159,7.0,17.4,86,0.00,,,-99.99,FreeWX-Wi 1.01,2013-07-26 02:22:00,
2013-07-25 21:27:00,64.8,60.8,28.70,SSE,163,8.0,15.4,87,0.00,,,-99.99,FreeWX-Wi 1.01,2013-07-26 02:27:00,
2013-07-25 21:32:00,64.6,61.0,28.70,South,173,9.0,13.2,88,0.00,,,-99.99,FreeWX-Wi 1.01,2013-07-26 02:32:00,
2013-07-25 21:37:00,64.6,61.0,28.70,South,182,10.0,14.1,88,0.00,,,-99.99,FreeWX-Wi 1.01,2013-07-26 02:37:00,
2013-07-25 21:42:00,64.8,61.2,28.70,South,184,10.0,12.8,88,0.00,,,-99.99,FreeWX-Wi 1.01,2013-07-26 02:42:00,
2013-07-25 21:47:00,64.8,61.5,28.70,South,183,10.0,11.0,89,0.00,,,-99.99,FreeWX-Wi 1.01,2013-07-26 02:47:00,
2013-07-25 21:52:00,64.8,61.5,28.70,South,181,10.0,11.0,89,0.00,,,-99.99,FreeWX-Wi 1.01,2013-07-26 02:52:00,
2013-07-25 21:57:00,64.9,61.7,28.70,South,180,9.0,13.2,89,0.00,,,-99.99,FreeWX-Wi 1.01,2013-07-26 02:57:00,
2013-07-25 22:02:00,65.1,61.9,28.70,South,178,9.0,12.3,89,0.00,,,-99.99,FreeWX-Wi 1.01,2013-07-26 03:02:00,
2013-07-25 22:07:00,65.1,61.9,28.70,South,176,9.0,13.2,89,0.00,,,-99.99,FreeWX-Wi 1.01,2013-07-26 03:07:00,
2013-07-25 22:12:00,65.1,61.5,28.70,South,176,10.0,13.2,88,0.00,,,-99.99,FreeWX-Wi 1.01,2013-07-26 03:12:00,
2013-07-25 22:17:00,65.1,61.2,28.70,South,174,10.0,12.8,87,0.00,,,-99.99,FreeWX-Wi 1.01,2013-07-26 03:17:00,
2013-07-25 22:22:00,65.3,61.3,28.70,South,173,10.0,12.8,87,0.00,,,-99.99,FreeWX-Wi 1.01,2013-07-26 03:22:00,
2013-07-25 22:27:00,65.3,61.7,28.70,South,174,10.0,12.8,88,0.00,,,-99.99,FreeWX-Wi 1.01,2013-07-26 03:27:00,
2013-07-25 22:32:00,65.3,61.7,28.70,South,176,10.0,13.2,88,0.00,,,-99.99,FreeWX-Wi 1.01,2013-07-26 03:32:00,
2013-07-25 22:37:00,65.1,61.5,28.70,South,178,10.0,15.0,88,0.00,,,-99.99,FreeWX-Wi 1.01,2013-07-26 03:37:00,
2013-07-25 22:42:00,65.1,61.5,28.70,South,182,10.0,12.8,88,0.00,,,-99.99,FreeWX-Wi 1.01,2013-07-26 03:42:00,
2013-07-25 22:47:00,65.1,61.5,28.70,South,187,9.0,12.8,88,0.00,,,-99.99,FreeWX-Wi 1.01,2013-07-26 03:47:00,
2013-07-25 22:52:00,65.1,61.9,28.70,South,189,9.0,10.5,89,0.00,,,-99.99,FreeWX-Wi 1.01,2013-07-26 03:52:00,
2013-07-25 22:57:00,64.9,61.7,28.70,South,191,9.0,12.8,89,0.00,,,-99.99,FreeWX-Wi 1.01,2013-07-26 03:57:00,
2013-07-25 23:02:00,64.9,61.7,28.70,SSW,192,9.0,12.8,89,0.00,,,-99.99,FreeWX-Wi 1.01,2013-07-26 04:02:00,
2013-07-25 23:07:00,64.9,61.9,28.70,SSW,192,9.0,13.2,90,0.00,,,-99.99,FreeWX-Wi 1.01,2013-07-26 04:07:00,
2013-07-25 23:12:00,65.1,62.1,28.70,South,191,9.0,13.2,90,0.00,,,-99.99,FreeWX-Wi 1.01,2013-07-26 04:12:00,
2013-07-25 23:17:00,65.1,62.1,28.70,South,190,9.0,14.5,90,0.00,,,-99.99,FreeWX-Wi 1.01,2013-07-26 04:17:00,
2013-07-25 23:22:00,65.1,61.9,28.70,South,188,10.0,15.0,89,0.00,,,-99.99,FreeWX-Wi 1.01,2013-07-26 04:22:00,
2013-07-25 23:27:00,65.1,61.9,28.70,South,186,10.0,13.2,89,0.00,,,-99.99,FreeWX-Wi 1.01,2013-07-26 04:27:00,
2013-07-25 23:32:00,64.9,61.7,28.70,South,186,10.0,14.1,89,0.00,,,-99.99,FreeWX-Wi 1.01,2013-07-26 04:32:00,
2013-07-25 23:37:00,64.8,61.2,28.70,South,186,10.0,12.8,88,0.00,,,-99.99,FreeWX-Wi 1.01,2013-07-26 04:37:00,
2013-07-25 23:47:00,64.6,61.0,28.70,South,189,9.0,10.1,88,0.00,,,-99.99,FreeWX-Wi 1.01,2013-07-26 04:47:00,
2013-07-25 23:52:00,64.4,60.8,28.70,South,191,9.0,11.0,88,0.00,,,-99.99,FreeWX-Wi 1.01,2013-07-26 04:52:00,
2013-07-25 23:57:00,64.4,61.2,28.70,SSW,193,8.0,10.1,89,0.00,,,-99.99,FreeWX-Wi 1.01,2013-07-26 04:57:00,